CYGL

Details ICAO CYGL (YGL)
Name LA GRANDE RIVIERE
Region Canada
Timezone America/Montreal (UTC-5.0)
Plans Departing 11
Arriving 14
Stats Elevation 639 ft / 195 m (AMSL)
Location 53.625369° -77.704115°
Runways 1
Magnetic Variation 15.325° W
Sunrise 2017-12-11 13:19:13 UTC / 2017-12-11 08:19:13 Local
Sunset 2017-12-11 20:52:02 UTC / 2017-12-11 15:52:02 Local
Advertisement - Login to hide

Runways

ID Width Length Bearing (true) Bearing (mag) Surface Threshold Offset Overrun Length
13 150 ft / 46 m 6,469 ft / 1,972 m 113.03° 128.36° Asphalt 0 ft / 0 m 0 ft / 0 m
31 150 ft / 46 m 6,469 ft / 1,972 m 293.05° 308.38° Asphalt 0 ft / 0 m 0 ft / 0 m

Map

Weather


0- 5 10 15 20 25 30 35+ Temperature / ° C

Clouds and Precipitation
Forecast for 2017-12-12 00:00 UTC. Updated 10 minutes ago

Ground ~20,000 ft ~40,000 ft Winds

METAR

CYGL 112300Z 15005KT 120V180 15SM -SN OVC035 M22/M25 A2986 RMK SC8 SLP138

TAF

TAF CYGL 111738Z 1118/1218 19010G20KT P6SM SCT040 BKN240 TEMPO 1118/1124 3SM -SHSN BKN020 OVC240 FM120000 19010KT P6SM BKN040 TEMPO 1200/1209 5SM -SN BKN020 FM120900 VRB03KT P6SM BKN040 BECMG 1213/1215 10006KT RMK NXT FCST BY 120000Z

Frequencies

Tower 122.30 MHz MF
Warning: Do not use this data for real-world aviation or navigation. No guarantee of current accuracy is given.